createdAt,value
2023-04-18T00:02:01.614Z,100360.70
2023-04-18T00:05:09.140Z,100359.19
2023-04-18T00:08:16.331Z,100351.48
2023-04-18T00:11:20.866Z,100348.74
2023-04-18T00:14:27.776Z,100347.89
2023-04-18T00:17:35.003Z,100353.72
2023-04-18T00:20:41.287Z,100341.77
2023-04-18T00:23:46.790Z,100337.33
2023-04-18T00:26:51.753Z,100340.73
2023-04-18T00:29:56.958Z,100347.56
2023-04-18T00:33:02.921Z,100342.28
2023-04-18T00:36:09.019Z,100348.25
2023-04-18T00:39:14.999Z,100339.20
2023-04-18T00:42:20.553Z,100349.09
2023-04-18T00:45:26.975Z,100348.77
2023-04-18T00:48:32.284Z,100339.53
2023-04-18T00:51:38.452Z,100341.59
2023-04-18T00:54:43.896Z,100335.27
2023-04-18T00:57:50.869Z,100336.30
2023-04-18T01:00:57.863Z,100327.94
2023-04-18T01:04:03.901Z,100330.50
2023-04-18T01:07:09.419Z,100341.23
2023-04-18T01:10:16.149Z,100340.39
2023-04-18T01:13:30.142Z,100336.13
2023-04-18T01:16:36.101Z,100338.17
2023-04-18T01:19:44.469Z,100336.48
2023-04-18T01:22:50.366Z,100332.20
2023-04-18T01:25:56.666Z,100332.21
2023-04-18T01:29:02.778Z,100334.76
2023-04-18T01:32:09.737Z,100330.33
2023-04-18T01:35:15.478Z,100321.09
2023-04-18T01:38:20.636Z,100328.61
2023-04-18T01:41:25.774Z,100332.37
2023-04-18T01:44:31.882Z,100338.84
2023-04-18T01:47:37.820Z,100338.66
2023-04-18T01:50:42.517Z,100331.52
2023-04-18T01:53:48.305Z,100341.59
2023-04-18T01:56:53.678Z,100338.16
2023-04-18T02:00:00.300Z,100335.60
2023-04-18T02:03:16.463Z,100343.61
2023-04-18T02:06:23.239Z,100332.84
2023-04-18T02:09:30.429Z,100333.34
2023-04-18T02:12:35.934Z,100335.22
2023-04-18T02:15:41.573Z,100332.97
2023-04-18T02:18:47.785Z,100333.33
2023-04-18T02:21:54.619Z,100339.98
2023-04-18T02:25:00.717Z,100334.70
2023-04-18T02:28:05.854Z,100337.95
2023-04-18T02:31:11.661Z,100340.50
2023-04-18T02:34:16.979Z,100343.38
2023-04-18T02:37:22.993Z,100338.09
2023-04-18T02:40:30.286Z,100329.84
2023-04-18T02:43:35.868Z,100325.56
2023-04-18T02:46:41.215Z,100334.92
2023-04-18T02:49:46.808Z,100331.52
2023-04-18T02:52:52.255Z,100325.66
2023-04-18T02:55:59.625Z,100325.26
2023-04-18T02:59:23.252Z,100321.10
2023-04-18T03:02:30.522Z,100318.03
2023-04-18T03:05:38.761Z,100324.48
2023-04-18T03:09:00.457Z,100329.33
2023-04-18T03:12:08.899Z,100328.28
2023-04-18T03:15:14.108Z,100323.17
2023-04-18T03:18:20.508Z,100332.57
2023-04-18T03:21:28.513Z,100338.41
2023-04-18T03:24:33.573Z,100346.02
2023-04-18T03:27:38.756Z,100344.58
2023-04-18T03:30:46.442Z,100345.63
2023-04-18T03:33:52.421Z,100341.56
2023-04-18T03:36:58.298Z,100332.76
2023-04-18T03:40:06.538Z,100326.06
2023-04-18T03:43:14.910Z,100321.73
2023-04-18T03:46:20.793Z,100324.28
2023-04-18T03:49:26.097Z,100341.47
2023-04-18T03:52:31.544Z,100334.76
2023-04-18T03:55:36.697Z,100333.08
2023-04-18T03:58:43.097Z,100342.77
2023-04-18T04:01:48.050Z,100336.99
2023-04-18T04:04:55.772Z,100354.92
2023-04-18T04:08:01.319Z,100345.20
2023-04-18T04:11:07.604Z,100356.17
2023-04-18T04:14:14.695Z,100350.22
2023-04-18T04:17:20.393Z,100364.00
2023-04-18T04:20:28.526Z,100367.77
2023-04-18T04:23:35.993Z,100361.48
2023-04-18T04:26:43.323Z,100371.19
2023-04-18T04:29:50.958Z,100372.54
2023-04-18T04:32:58.836Z,100378.14
2023-04-18T04:36:04.624Z,100370.05
2023-04-18T04:39:15.568Z,100366.45
2023-04-18T04:42:38.093Z,100370.84
2023-04-18T04:45:46.323Z,100352.57
2023-04-18T04:48:54.213Z,100347.98
2023-04-18T04:52:01.400Z,100353.97
2023-04-18T04:55:07.679Z,100349.88
2023-04-18T04:58:13.014Z,100347.50
2023-04-18T05:01:28.880Z,100357.38
2023-04-18T05:04:34.893Z,100347.32
2023-04-18T05:07:41.242Z,100338.91
2023-04-18T05:10:48.374Z,100346.92
2023-04-18T05:13:54.778Z,100345.41
2023-04-18T05:17:00.227Z,100342.86
2023-04-18T05:20:06.826Z,100336.08
2023-04-18T05:23:12.419Z,100327.72
2023-04-18T05:26:22.110Z,100328.08
2023-04-18T05:29:27.714Z,100323.64
2023-04-18T05:32:33.777Z,100320.04
2023-04-18T05:35:43.605Z,100313.00
2023-04-18T05:38:48.097Z,100316.95
2023-04-18T05:41:53.413Z,100307.41
2023-04-18T05:45:01.553Z,100319.39
2023-04-18T05:48:07.105Z,100303.69
2023-04-18T05:51:13.032Z,100291.87
2023-04-18T05:54:18.693Z,100305.72
2023-04-18T05:57:24.233Z,100301.80
2023-04-18T06:00:30.162Z,100311.37
2023-04-18T06:03:35.972Z,100310.34
2023-04-18T06:06:42.286Z,100311.00
2023-04-18T06:09:49.837Z,100312.52
2023-04-18T06:12:54.778Z,100301.73
2023-04-18T06:16:00.318Z,100298.75
2023-04-18T06:19:06.462Z,100306.23
2023-04-18T06:22:11.416Z,100297.86
2023-04-18T06:25:16.829Z,100305.55
2023-04-18T06:28:22.616Z,100310.75
2023-04-18T06:31:28.848Z,100294.22
2023-04-18T06:34:35.616Z,100307.66
2023-04-18T06:37:41.711Z,100308.77
2023-04-18T06:40:47.755Z,100309.16
2023-04-18T06:44:03.511Z,100314.86
2023-04-18T06:46:59.842Z,100302.47
2023-04-18T06:50:06.224Z,100304.44
2023-04-18T06:53:11.104Z,100300.58
2023-04-18T06:56:15.971Z,100308.67
2023-04-18T06:59:21.407Z,100300.55
2023-04-18T07:02:32.909Z,100299.09
2023-04-18T07:05:38.536Z,100298.38
2023-04-18T07:08:44.855Z,100301.16
2023-04-18T07:11:50.647Z,100302.85
2023-04-18T07:14:55.827Z,100305.47
2023-04-18T07:18:01.332Z,100298.08
2023-04-18T07:21:06.680Z,100298.97
2023-04-18T07:24:12.143Z,100309.52
2023-04-18T07:27:18.302Z,100304.31
2023-04-18T07:30:24.987Z,100308.80
2023-04-18T07:33:31.775Z,100315.32
2023-04-18T07:36:38.351Z,100307.71
2023-04-18T07:39:43.799Z,100320.83
2023-04-18T07:42:50.377Z,100321.48
2023-04-18T07:45:56.060Z,100307.41
2023-04-18T07:49:01.096Z,100319.58
2023-04-18T07:52:06.378Z,100313.00
2023-04-18T07:55:14.086Z,100299.95
2023-04-18T07:58:19.475Z,100299.88
2023-04-18T08:01:29.263Z,100292.99
2023-04-18T08:04:37.068Z,100289.98
2023-04-18T08:07:44.248Z,100291.80
2023-04-18T08:10:52.348Z,100302.81
2023-04-18T08:13:59.985Z,100299.62
2023-04-18T08:17:06.237Z,100292.35
2023-04-18T08:20:14.041Z,100289.85
2023-04-18T08:23:20.851Z,100290.22
2023-04-18T08:26:26.684Z,100300.63
2023-04-18T08:29:32.022Z,100289.27
2023-04-18T08:32:38.133Z,100292.95
2023-04-18T08:35:43.307Z,100286.64
2023-04-18T08:38:49.229Z,100284.93
2023-04-18T08:41:55.211Z,100287.81
2023-04-18T08:45:00.610Z,100294.23
2023-04-18T08:48:07.882Z,100276.53
2023-04-18T08:51:13.785Z,100274.81
2023-04-18T08:54:20.106Z,100282.61
2023-04-18T08:57:32.420Z,100282.41
2023-04-18T09:00:37.436Z,100288.34
2023-04-18T09:03:55.038Z,100282.99
2023-04-18T09:07:07.750Z,100267.56
2023-04-18T09:10:13.130Z,100279.12
2023-04-18T09:13:19.850Z,100286.98
2023-04-18T09:16:27.121Z,100284.77
2023-04-18T09:19:33.121Z,100290.11
2023-04-18T09:22:40.007Z,100288.36
2023-04-18T09:25:59.176Z,100282.13
2023-04-18T09:29:04.674Z,100284.12
2023-04-18T09:32:14.417Z,100283.83
2023-04-18T09:35:20.188Z,100279.75
2023-04-18T09:38:25.466Z,100282.41
2023-04-18T09:41:31.456Z,100280.28
2023-04-18T09:44:39.483Z,100274.95
2023-04-18T09:47:51.315Z,100284.61
2023-04-18T09:50:58.506Z,100297.64
2023-04-18T09:54:03.941Z,100293.41
2023-04-18T09:57:09.802Z,100287.22
2023-04-18T10:00:27.636Z,100273.94
2023-04-18T10:03:36.884Z,100270.45
2023-04-18T10:06:44.489Z,100256.67
2023-04-18T10:09:51.591Z,100260.71
2023-04-18T10:12:58.260Z,100254.94
2023-04-18T10:16:06.220Z,100250.34
2023-04-18T10:19:12.091Z,100242.31
2023-04-18T10:22:17.753Z,100241.91
2023-04-18T10:25:31.268Z,100250.89
2023-04-18T10:28:39.465Z,100257.47
2023-04-18T10:31:45.559Z,100257.83
2023-04-18T10:34:52.932Z,100251.78
2023-04-18T10:38:08.030Z,100247.98
2023-04-18T10:41:42.053Z,100268.27
2023-04-18T10:44:47.420Z,100270.45
2023-04-18T10:47:53.492Z,100261.41
2023-04-18T10:51:33.238Z,100251.68
2023-04-18T10:55:09.702Z,100258.50
2023-04-18T10:58:16.682Z,100258.22
2023-04-18T11:01:23.057Z,100250.93
2023-04-18T11:04:29.358Z,100252.31
2023-04-18T11:08:21.981Z,100255.78
2023-04-18T11:11:28.388Z,100245.06
2023-04-18T11:14:38.906Z,100242.04
2023-04-18T11:17:54.439Z,100233.34
2023-04-18T11:21:05.488Z,100236.28
2023-04-18T11:24:12.162Z,100243.58
2023-04-18T11:27:29.039Z,100245.66
2023-04-18T11:30:40.046Z,100243.97
2023-04-18T11:33:46.377Z,100237.66
2023-04-18T11:36:52.435Z,100223.17
2023-04-18T11:39:58.698Z,100220.47
2023-04-18T11:43:04.966Z,100222.36
2023-04-18T11:46:12.472Z,100214.61
2023-04-18T11:49:18.773Z,100208.88
2023-04-18T11:52:28.342Z,100218.67
2023-04-18T11:55:34.799Z,100222.48
2023-04-18T11:58:50.128Z,100204.62
2023-04-18T12:01:58.869Z,100201.91
2023-04-18T12:05:15.315Z,100197.34
2023-04-18T12:08:27.074Z,100185.58
2023-04-18T12:11:36.961Z,100194.91
2023-04-18T12:14:42.351Z,100188.97
2023-04-18T12:17:49.218Z,100182.91
2023-04-18T12:21:02.313Z,100188.64
2023-04-18T12:24:09.070Z,100193.29
2023-04-18T12:27:14.709Z,100190.27
2023-04-18T12:30:21.912Z,100187.73
2023-04-18T12:33:27.282Z,100177.77
2023-04-18T12:36:35.015Z,100170.59
2023-04-18T12:39:40.977Z,100168.64
2023-04-18T12:42:46.688Z,100169.97
2023-04-18T12:45:52.292Z,100166.23
2023-04-18T12:48:57.905Z,100171.66
2023-04-18T12:52:03.207Z,100164.14
2023-04-18T12:55:08.447Z,100169.31
2023-04-18T12:58:13.956Z,100163.20
2023-04-18T13:01:21.316Z,100171.86
2023-04-18T13:04:27.444Z,100168.30
2023-04-18T13:07:33.356Z,100174.58
2023-04-18T13:10:39.398Z,100176.10
2023-04-18T13:13:45.960Z,100179.00
2023-04-18T13:16:50.987Z,100176.88
2023-04-18T13:19:55.886Z,100184.73
2023-04-18T13:23:01.942Z,100182.49
2023-04-18T13:26:06.781Z,100179.32
2023-04-18T13:29:12.689Z,100172.52
2023-04-18T13:32:20.090Z,100172.60
2023-04-18T13:35:27.912Z,100165.60
2023-04-18T13:38:33.610Z,100164.33
2023-04-18T13:41:40.257Z,100158.97
2023-04-18T13:44:45.836Z,100164.99
2023-04-18T13:47:51.265Z,100153.84
2023-04-18T13:50:58.221Z,100155.24
2023-04-18T13:54:07.191Z,100143.16
2023-04-18T13:57:16.620Z,100146.21
2023-04-18T14:00:23.818Z,100145.03
2023-04-18T14:03:29.831Z,100138.98
2023-04-18T14:06:35.848Z,100145.36
2023-04-18T14:09:41.815Z,100151.19
2023-04-18T14:12:47.108Z,100147.17
2023-04-18T14:15:53.349Z,100146.23
2023-04-18T14:19:01.140Z,100136.02
2023-04-18T14:22:07.143Z,100139.03
2023-04-18T14:25:12.182Z,100139.88
2023-04-18T14:28:24.408Z,100147.60
2023-04-18T14:31:30.994Z,100144.08
2023-04-18T14:34:38.789Z,100139.23
2023-04-18T14:37:44.431Z,100140.30
2023-04-18T14:40:50.214Z,100145.27
2023-04-18T14:43:56.021Z,100139.42
2023-04-18T14:47:00.942Z,100136.47
2023-04-18T14:50:06.296Z,100141.66
2023-04-18T14:53:11.540Z,100134.55
2023-04-18T14:56:17.734Z,100133.70
2023-04-18T14:59:23.160Z,100128.11
2023-04-18T15:02:28.992Z,100131.91
2023-04-18T15:05:35.793Z,100131.89
2023-04-18T15:08:41.576Z,100129.14
2023-04-18T15:11:47.070Z,100130.83
2023-04-18T15:14:52.683Z,100128.51
2023-04-18T15:17:59.513Z,100125.63
2023-04-18T15:21:05.669Z,100127.01
2023-04-18T15:24:11.433Z,100115.69
2023-04-18T15:27:17.863Z,100124.45
2023-04-18T15:30:25.590Z,100126.12
2023-04-18T15:33:31.809Z,100119.14
2023-04-18T15:36:38.227Z,100124.87
2023-04-18T15:39:44.261Z,100124.99
2023-04-18T15:42:50.636Z,100131.97
2023-04-18T15:45:55.556Z,100137.13
2023-04-18T15:49:01.845Z,100125.41
2023-04-18T15:52:09.150Z,100130.38
2023-04-18T15:55:13.979Z,100129.89
2023-04-18T15:58:20.387Z,100127.41
2023-04-18T16:01:28.259Z,100128.91
2023-04-18T16:04:34.938Z,100129.77
2023-04-18T16:07:40.910Z,100137.39
2023-04-18T16:10:46.692Z,100143.39
2023-04-18T16:13:51.860Z,100141.30
2023-04-18T16:16:58.463Z,100140.89
2023-04-18T16:20:04.764Z,100137.86
2023-04-18T16:23:10.275Z,100147.42
2023-04-18T16:26:15.623Z,100149.48
2023-04-18T16:29:21.470Z,100156.72
2023-04-18T16:32:27.033Z,100153.25
2023-04-18T16:35:32.832Z,100151.42
2023-04-18T16:38:38.218Z,100153.36
2023-04-18T16:41:43.184Z,100156.64
2023-04-18T16:44:48.080Z,100152.23
2023-04-18T16:47:53.860Z,100151.48
2023-04-18T16:50:59.850Z,100155.04
2023-04-18T16:54:06.488Z,100147.77
2023-04-18T17:00:54.172Z,100139.33
2023-04-18T17:04:00.697Z,100145.22
2023-04-18T17:07:05.927Z,100143.80
2023-04-18T17:10:12.662Z,100148.76
2023-04-18T17:13:18.671Z,100151.83
2023-04-18T17:16:24.673Z,100153.83
2023-04-18T17:19:30.362Z,100156.56
2023-04-18T17:22:37.990Z,100150.55
2023-04-18T17:25:43.940Z,100148.11
2023-04-18T17:28:48.752Z,100156.16
2023-04-18T17:31:55.987Z,100152.83
2023-04-18T17:35:02.778Z,100157.20
2023-04-18T17:38:01.397Z,100153.24
2023-04-18T17:41:18.204Z,100154.19
2023-04-18T17:44:24.000Z,100156.55
2023-04-18T17:47:29.692Z,100151.08
2023-04-18T17:50:35.162Z,100144.19
2023-04-18T17:53:41.043Z,100146.45
2023-04-18T17:56:46.372Z,100131.75
2023-04-18T17:59:51.588Z,100130.01
2023-04-18T18:02:57.936Z,100117.58
2023-04-18T18:06:04.408Z,100116.06
2023-04-18T18:09:09.327Z,100114.33
2023-04-18T18:12:15.041Z,100100.80
2023-04-18T18:15:22.719Z,100105.86
2023-04-18T18:18:27.683Z,100095.14
2023-04-18T18:21:33.104Z,100086.91
2023-04-18T18:24:39.537Z,100090.27
2023-04-18T18:27:45.678Z,100096.61
2023-04-18T18:30:51.274Z,100096.42
2023-04-18T18:33:56.488Z,100097.30
2023-04-18T18:37:03.323Z,100101.69
2023-04-18T18:40:10.982Z,100099.52
2023-04-18T18:43:15.714Z,100101.81
2023-04-18T18:46:21.806Z,100103.70
2023-04-18T18:49:28.393Z,100095.88
2023-04-18T18:52:38.121Z,100094.42
2023-04-18T18:55:44.267Z,100095.80
2023-04-18T18:58:50.434Z,100089.77
2023-04-18T19:01:55.882Z,100084.81
2023-04-18T19:05:01.807Z,100078.31
2023-04-18T19:08:10.380Z,100078.03
2023-04-18T19:11:17.462Z,100075.89
2023-04-18T19:14:22.407Z,100075.27
2023-04-18T19:17:29.068Z,100071.75
2023-04-18T19:20:33.683Z,100075.92
2023-04-18T19:23:40.680Z,100077.52
2023-04-18T19:26:47.157Z,100074.86
2023-04-18T19:29:53.605Z,100073.88
2023-04-18T19:32:59.600Z,100065.00
2023-04-18T19:36:04.653Z,100071.68
2023-04-18T19:39:11.212Z,100074.03
2023-04-18T19:42:17.732Z,100079.34
2023-04-18T19:45:24.121Z,100073.70
2023-04-18T19:48:31.278Z,100068.84
2023-04-18T19:51:36.858Z,100063.66
2023-04-18T19:54:44.676Z,100061.74
2023-04-18T19:57:54.710Z,100067.73
2023-04-18T20:01:00.338Z,100061.41
2023-04-18T20:04:06.804Z,100069.78
2023-04-18T20:07:13.018Z,100071.97
2023-04-18T20:10:18.372Z,100069.61
2023-04-18T20:13:23.568Z,100060.03
2023-04-18T20:16:29.235Z,100054.69
2023-04-18T20:19:36.258Z,100055.55
2023-04-18T20:22:41.475Z,100050.89
2023-04-18T20:25:48.099Z,100049.91
2023-04-18T20:28:53.268Z,100052.38
2023-04-18T20:31:51.700Z,100050.84
2023-04-18T20:34:58.459Z,100045.91
2023-04-18T20:38:04.314Z,100043.43
2023-04-18T20:41:10.242Z,100041.58
2023-04-18T20:44:16.932Z,100030.20
2023-04-18T20:47:22.440Z,100030.77
2023-04-18T20:50:28.568Z,100027.14
2023-04-18T20:53:36.359Z,100023.63
2023-04-18T20:56:42.418Z,100018.00
2023-04-18T20:59:47.455Z,100010.15
2023-04-18T21:02:53.786Z,100015.66
2023-04-18T21:05:59.541Z,100008.41
2023-04-18T21:09:05.655Z,100002.38
2023-04-18T21:12:10.405Z,100001.36
2023-04-18T21:15:15.289Z,99998.31
2023-04-18T21:18:20.503Z,99991.08
2023-04-18T21:21:19.827Z,99985.39
2023-04-18T21:24:24.988Z,99978.06
2023-04-18T21:27:30.945Z,99984.02
2023-04-18T21:30:36.421Z,99978.37
2023-04-18T21:33:42.184Z,99977.33
2023-04-18T21:36:48.593Z,99971.44
2023-04-18T21:39:53.282Z,99964.20
2023-04-18T21:42:58.374Z,99965.18
2023-04-18T21:46:06.099Z,99960.17
2023-04-18T21:49:12.756Z,99970.02
2023-04-18T21:52:17.463Z,99962.65
2023-04-18T21:55:23.763Z,99971.13
2023-04-18T21:58:28.660Z,99962.04
2023-04-18T22:01:33.956Z,99959.39
2023-04-18T22:04:40.362Z,99959.17
2023-04-18T22:07:57.588Z,99950.09
2023-04-18T22:10:56.520Z,99943.45
2023-04-18T22:14:04.285Z,99938.16
2023-04-18T22:17:13.404Z,99932.85
2023-04-18T22:20:21.330Z,99922.55
2023-04-18T22:23:26.183Z,99922.77
2023-04-18T22:26:32.228Z,99921.76
2023-04-18T22:29:36.679Z,99923.13
2023-04-18T22:32:41.192Z,99919.38
2023-04-18T22:35:46.911Z,99915.88
2023-04-18T22:38:53.563Z,99919.23
2023-04-18T22:42:00.136Z,99907.13
2023-04-18T22:45:04.981Z,99910.52
2023-04-18T22:48:10.885Z,99913.53
2023-04-18T22:51:15.691Z,99910.34
2023-04-18T22:54:22.224Z,99908.34
2023-04-18T22:57:27.670Z,99908.72
2023-04-18T23:00:32.857Z,99901.05
2023-04-18T23:03:40.941Z,99886.32
2023-04-18T23:06:45.613Z,99880.94
2023-04-18T23:09:51.137Z,99881.63
2023-04-18T23:12:56.655Z,99878.92
2023-04-18T23:16:02.265Z,99878.28
2023-04-18T23:19:07.692Z,99883.23
2023-04-18T23:22:13.092Z,99867.97
2023-04-18T23:25:18.776Z,99867.11
2023-04-18T23:28:24.141Z,99870.85
2023-04-18T23:31:22.984Z,99872.76
2023-04-18T23:34:28.567Z,99868.64
2023-04-18T23:37:34.577Z,99867.09
2023-04-18T23:40:39.877Z,99867.11
2023-04-18T23:43:44.941Z,99864.70
2023-04-18T23:46:50.224Z,99862.72
2023-04-18T23:49:55.540Z,99858.72
2023-04-18T23:53:02.913Z,99858.67
2023-04-18T23:56:08.732Z,99847.75
2023-04-18T23:59:14.382Z,99839.30
